sensor_id;sensor_type;location;lat;lon;timestamp;P1;durP1;ratioP1;P2;durP2;ratioP2
18748;SDS011;9503;53.560;10.246;2023-07-31T00:01:04;4.65;;;3.03;;
18748;SDS011;9503;53.560;10.246;2023-07-31T00:03:30;5.13;;;3.10;;
18748;SDS011;9503;53.560;10.246;2023-07-31T00:05:57;9.13;;;3.47;;
18748;SDS011;9503;53.560;10.246;2023-07-31T00:08:24;4.63;;;2.63;;
18748;SDS011;9503;53.560;10.246;2023-07-31T00:10:52;11.37;;;3.17;;
18748;SDS011;9503;53.560;10.246;2023-07-31T00:13:19;6.47;;;3.00;;
18748;SDS011;9503;53.560;10.246;2023-07-31T00:15:45;9.33;;;3.13;;
18748;SDS011;9503;53.560;10.246;2023-07-31T00:18:12;7.95;;;3.03;;
18748;SDS011;9503;53.560;10.246;2023-07-31T00:20:39;6.83;;;3.07;;
18748;SDS011;9503;53.560;10.246;2023-07-31T00:23:06;9.67;;;3.47;;
18748;SDS011;9503;53.560;10.246;2023-07-31T00:25:32;11.50;;;3.45;;
18748;SDS011;9503;53.560;10.246;2023-07-31T00:28:00;14.13;;;3.33;;
18748;SDS011;9503;53.560;10.246;2023-07-31T00:30:27;9.93;;;3.27;;
18748;SDS011;9503;53.560;10.246;2023-07-31T00:32:54;7.53;;;3.07;;
18748;SDS011;9503;53.560;10.246;2023-07-31T00:35:20;10.80;;;3.27;;
18748;SDS011;9503;53.560;10.246;2023-07-31T00:37:47;5.88;;;2.78;;
18748;SDS011;9503;53.560;10.246;2023-07-31T00:40:14;7.03;;;3.43;;
18748;SDS011;9503;53.560;10.246;2023-07-31T00:42:40;6.63;;;2.90;;
18748;SDS011;9503;53.560;10.246;2023-07-31T00:45:09;5.35;;;2.90;;
18748;SDS011;9503;53.560;10.246;2023-07-31T00:47:35;6.13;;;2.40;;
18748;SDS011;9503;53.560;10.246;2023-07-31T00:50:02;9.20;;;2.70;;
18748;SDS011;9503;53.560;10.246;2023-07-31T00:52:29;7.28;;;2.72;;
18748;SDS011;9503;53.560;10.246;2023-07-31T00:54:56;5.38;;;2.85;;
18748;SDS011;9503;53.560;10.246;2023-07-31T00:57:23;15.60;;;3.20;;
18748;SDS011;9503;53.560;10.246;2023-07-31T00:59:50;10.95;;;2.90;;
18748;SDS011;9503;53.560;10.246;2023-07-31T01:02:18;9.13;;;3.00;;
18748;SDS011;9503;53.560;10.246;2023-07-31T01:04:45;11.93;;;3.03;;
18748;SDS011;9503;53.560;10.246;2023-07-31T01:07:14;4.38;;;2.83;;
18748;SDS011;9503;53.560;10.246;2023-07-31T01:10:07;8.53;;;2.77;;
18748;SDS011;9503;53.560;10.246;2023-07-31T01:12:38;4.33;;;2.80;;
18748;SDS011;9503;53.560;10.246;2023-07-31T01:15:05;10.27;;;3.00;;
18748;SDS011;9503;53.560;10.246;2023-07-31T01:17:37;11.20;;;3.03;;
18748;SDS011;9503;53.560;10.246;2023-07-31T01:20:08;6.37;;;2.80;;
18748;SDS011;9503;53.560;10.246;2023-07-31T01:23:06;5.82;;;3.08;;
18748;SDS011;9503;53.560;10.246;2023-07-31T01:25:50;8.73;;;3.30;;
18748;SDS011;9503;53.560;10.246;2023-07-31T01:28:23;9.10;;;3.03;;
18748;SDS011;9503;53.560;10.246;2023-07-31T01:30:54;10.40;;;3.10;;
18748;SDS011;9503;53.560;10.246;2023-07-31T01:33:25;8.87;;;3.47;;
18748;SDS011;9503;53.560;10.246;2023-07-31T01:35:52;11.40;;;3.20;;
18748;SDS011;9503;53.560;10.246;2023-07-31T01:38:20;5.17;;;2.73;;
18748;SDS011;9503;53.560;10.246;2023-07-31T01:40:52;9.10;;;3.28;;
18748;SDS011;9503;53.560;10.246;2023-07-31T01:43:22;12.82;;;3.08;;
18748;SDS011;9503;53.560;10.246;2023-07-31T01:45:49;12.77;;;3.03;;
18748;SDS011;9503;53.560;10.246;2023-07-31T01:48:21;9.93;;;3.67;;
18748;SDS011;9503;53.560;10.246;2023-07-31T01:50:50;8.23;;;3.60;;
18748;SDS011;9503;53.560;10.246;2023-07-31T01:53:17;6.82;;;3.17;;
18748;SDS011;9503;53.560;10.246;2023-07-31T01:55:47;8.43;;;3.05;;
18748;SDS011;9503;53.560;10.246;2023-07-31T01:58:15;7.87;;;3.20;;
18748;SDS011;9503;53.560;10.246;2023-07-31T02:00:42;7.10;;;3.08;;
18748;SDS011;9503;53.560;10.246;2023-07-31T02:03:08;10.63;;;3.70;;
18748;SDS011;9503;53.560;10.246;2023-07-31T02:05:35;5.25;;;2.83;;
18748;SDS011;9503;53.560;10.246;2023-07-31T02:08:02;6.77;;;2.83;;
18748;SDS011;9503;53.560;10.246;2023-07-31T02:10:29;7.13;;;3.40;;
18748;SDS011;9503;53.560;10.246;2023-07-31T02:12:55;7.63;;;2.63;;
18748;SDS011;9503;53.560;10.246;2023-07-31T02:15:26;10.88;;;2.80;;
18748;SDS011;9503;53.560;10.246;2023-07-31T02:17:53;10.13;;;3.00;;
18748;SDS011;9503;53.560;10.246;2023-07-31T02:20:19;9.23;;;3.90;;
18748;SDS011;9503;53.560;10.246;2023-07-31T02:22:46;6.53;;;3.27;;
18748;SDS011;9503;53.560;10.246;2023-07-31T02:25:13;8.48;;;3.47;;
18748;SDS011;9503;53.560;10.246;2023-07-31T02:27:42;8.30;;;3.30;;
18748;SDS011;9503;53.560;10.246;2023-07-31T02:30:09;7.57;;;4.03;;
18748;SDS011;9503;53.560;10.246;2023-07-31T02:32:38;8.50;;;3.33;;
18748;SDS011;9503;53.560;10.246;2023-07-31T02:35:05;5.93;;;3.30;;
18748;SDS011;9503;53.560;10.246;2023-07-31T02:37:33;8.53;;;3.20;;
18748;SDS011;9503;53.560;10.246;2023-07-31T02:40:00;12.52;;;5.22;;
18748;SDS011;9503;53.560;10.246;2023-07-31T02:42:27;9.07;;;3.40;;
18748;SDS011;9503;53.560;10.246;2023-07-31T02:44:53;9.13;;;3.85;;
18748;SDS011;9503;53.560;10.246;2023-07-31T02:47:21;7.43;;;4.47;;
18748;SDS011;9503;53.560;10.246;2023-07-31T02:49:49;9.63;;;3.90;;
18748;SDS011;9503;53.560;10.246;2023-07-31T02:52:15;10.57;;;3.75;;
18748;SDS011;9503;53.560;10.246;2023-07-31T02:54:42;9.82;;;3.60;;
18748;SDS011;9503;53.560;10.246;2023-07-31T02:57:09;7.38;;;3.60;;
18748;SDS011;9503;53.560;10.246;2023-07-31T02:59:35;11.65;;;4.18;;
18748;SDS011;9503;53.560;10.246;2023-07-31T03:02:02;6.18;;;3.58;;
18748;SDS011;9503;53.560;10.246;2023-07-31T03:04:29;15.13;;;4.18;;
18748;SDS011;9503;53.560;10.246;2023-07-31T03:06:57;10.53;;;4.07;;
18748;SDS011;9503;53.560;10.246;2023-07-31T03:09:24;12.43;;;4.68;;
18748;SDS011;9503;53.560;10.246;2023-07-31T03:11:50;7.13;;;3.80;;
18748;SDS011;9503;53.560;10.246;2023-07-31T03:14:20;6.43;;;4.03;;
18748;SDS011;9503;53.560;10.246;2023-07-31T03:16:47;12.27;;;3.78;;
18748;SDS011;9503;53.560;10.246;2023-07-31T03:19:13;8.57;;;4.20;;
18748;SDS011;9503;53.560;10.246;2023-07-31T03:21:40;7.82;;;4.15;;
18748;SDS011;9503;53.560;10.246;2023-07-31T03:24:08;9.57;;;4.47;;
18748;SDS011;9503;53.560;10.246;2023-07-31T03:26:37;10.63;;;4.20;;
18748;SDS011;9503;53.560;10.246;2023-07-31T03:29:06;8.93;;;4.22;;
18748;SDS011;9503;53.560;10.246;2023-07-31T03:31:33;10.13;;;4.05;;
18748;SDS011;9503;53.560;10.246;2023-07-31T03:33:59;8.18;;;4.13;;
18748;SDS011;9503;53.560;10.246;2023-07-31T03:36:26;9.00;;;3.70;;
18748;SDS011;9503;53.560;10.246;2023-07-31T03:38:53;8.57;;;4.00;;
18748;SDS011;9503;53.560;10.246;2023-07-31T03:41:24;9.82;;;3.80;;
18748;SDS011;9503;53.560;10.246;2023-07-31T03:43:51;9.00;;;4.22;;
18748;SDS011;9503;53.560;10.246;2023-07-31T03:46:18;7.95;;;4.38;;
18748;SDS011;9503;53.560;10.246;2023-07-31T03:48:44;12.27;;;4.55;;
18748;SDS011;9503;53.560;10.246;2023-07-31T03:51:11;8.95;;;4.32;;
18748;SDS011;9503;53.560;10.246;2023-07-31T03:53:38;14.50;;;5.07;;
18748;SDS011;9503;53.560;10.246;2023-07-31T03:56:04;9.02;;;4.68;;
18748;SDS011;9503;53.560;10.246;2023-07-31T03:58:32;10.40;;;4.43;;
18748;SDS011;9503;53.560;10.246;2023-07-31T04:01:00;8.63;;;4.32;;
18748;SDS011;9503;53.560;10.246;2023-07-31T04:03:26;9.07;;;4.47;;
18748;SDS011;9503;53.560;10.246;2023-07-31T04:05:53;5.53;;;4.30;;
18748;SDS011;9503;53.560;10.246;2023-07-31T04:08:21;9.80;;;4.95;;
18748;SDS011;9503;53.560;10.246;2023-07-31T04:10:47;9.85;;;4.82;;
18748;SDS011;9503;53.560;10.246;2023-07-31T04:13:14;9.77;;;4.90;;
18748;SDS011;9503;53.560;10.246;2023-07-31T04:15:42;9.57;;;5.22;;
18748;SDS011;9503;53.560;10.246;2023-07-31T04:18:11;9.38;;;5.68;;
18748;SDS011;9503;53.560;10.246;2023-07-31T04:20:39;8.20;;;5.20;;
18748;SDS011;9503;53.560;10.246;2023-07-31T04:23:05;7.95;;;5.00;;
18748;SDS011;9503;53.560;10.246;2023-07-31T04:25:32;9.40;;;5.22;;
18748;SDS011;9503;53.560;10.246;2023-07-31T04:28:00;8.25;;;5.65;;
18748;SDS011;9503;53.560;10.246;2023-07-31T04:30:26;7.45;;;4.70;;
18748;SDS011;9503;53.560;10.246;2023-07-31T04:32:57;7.63;;;5.28;;
18748;SDS011;9503;53.560;10.246;2023-07-31T04:35:24;9.27;;;5.10;;
18748;SDS011;9503;53.560;10.246;2023-07-31T04:37:58;6.50;;;5.22;;
18748;SDS011;9503;53.560;10.246;2023-07-31T04:40:27;8.75;;;5.57;;
18748;SDS011;9503;53.560;10.246;2023-07-31T04:42:56;7.28;;;5.10;;
18748;SDS011;9503;53.560;10.246;2023-07-31T04:45:23;8.43;;;5.47;;
18748;SDS011;9503;53.560;10.246;2023-07-31T04:47:52;8.23;;;5.68;;
18748;SDS011;9503;53.560;10.246;2023-07-31T04:50:29;8.82;;;5.70;;
18748;SDS011;9503;53.560;10.246;2023-07-31T04:52:56;10.13;;;6.72;;
18748;SDS011;9503;53.560;10.246;2023-07-31T04:55:26;8.85;;;6.05;;
18748;SDS011;9503;53.560;10.246;2023-07-31T04:57:56;7.15;;;5.43;;
18748;SDS011;9503;53.560;10.246;2023-07-31T05:00:26;7.15;;;5.82;;
18748;SDS011;9503;53.560;10.246;2023-07-31T05:02:56;7.28;;;5.78;;
18748;SDS011;9503;53.560;10.246;2023-07-31T05:05:27;6.20;;;5.22;;
18748;SDS011;9503;53.560;10.246;2023-07-31T05:08:01;6.40;;;5.10;;
18748;SDS011;9503;53.560;10.246;2023-07-31T05:10:29;6.88;;;5.30;;
18748;SDS011;9503;53.560;10.246;2023-07-31T05:12:56;9.13;;;5.45;;
18748;SDS011;9503;53.560;10.246;2023-07-31T05:15:25;6.07;;;4.68;;
18748;SDS011;9503;53.560;10.246;2023-07-31T05:17:52;7.95;;;5.50;;
18748;SDS011;9503;53.560;10.246;2023-07-31T05:20:21;8.35;;;5.55;;
18748;SDS011;9503;53.560;10.246;2023-07-31T05:22:49;5.75;;;5.25;;
18748;SDS011;9503;53.560;10.246;2023-07-31T05:25:18;6.95;;;5.60;;
18748;SDS011;9503;53.560;10.246;2023-07-31T05:27:44;7.53;;;5.40;;
18748;SDS011;9503;53.560;10.246;2023-07-31T05:30:15;5.30;;;4.80;;
18748;SDS011;9503;53.560;10.246;2023-07-31T05:32:46;6.05;;;4.93;;
18748;SDS011;9503;53.560;10.246;2023-07-31T05:35:14;6.32;;;5.40;;
18748;SDS011;9503;53.560;10.246;2023-07-31T05:37:44;6.57;;;5.25;;
18748;SDS011;9503;53.560;10.246;2023-07-31T05:40:12;6.47;;;5.05;;
18748;SDS011;9503;53.560;10.246;2023-07-31T05:42:44;6.10;;;5.47;;
18748;SDS011;9503;53.560;10.246;2023-07-31T05:45:10;6.20;;;5.55;;
18748;SDS011;9503;53.560;10.246;2023-07-31T05:47:38;5.88;;;5.28;;
18748;SDS011;9503;53.560;10.246;2023-07-31T05:50:05;7.00;;;5.60;;
18748;SDS011;9503;53.560;10.246;2023-07-31T05:52:32;6.97;;;5.47;;
18748;SDS011;9503;53.560;10.246;2023-07-31T05:54:58;6.40;;;5.63;;
18748;SDS011;9503;53.560;10.246;2023-07-31T05:57:27;5.90;;;5.20;;
18748;SDS011;9503;53.560;10.246;2023-07-31T05:59:53;8.30;;;5.18;;
18748;SDS011;9503;53.560;10.246;2023-07-31T06:02:20;6.53;;;5.53;;
18748;SDS011;9503;53.560;10.246;2023-07-31T06:04:47;5.38;;;4.88;;
18748;SDS011;9503;53.560;10.246;2023-07-31T06:07:13;7.85;;;5.28;;
18748;SDS011;9503;53.560;10.246;2023-07-31T06:09:40;5.28;;;4.78;;
18748;SDS011;9503;53.560;10.246;2023-07-31T06:12:10;5.90;;;5.25;;
18748;SDS011;9503;53.560;10.246;2023-07-31T06:14:39;5.55;;;5.05;;
18748;SDS011;9503;53.560;10.246;2023-07-31T06:17:14;5.38;;;4.88;;
18748;SDS011;9503;53.560;10.246;2023-07-31T06:19:42;6.60;;;4.53;;
18748;SDS011;9503;53.560;10.246;2023-07-31T06:22:11;6.05;;;5.45;;
18748;SDS011;9503;53.560;10.246;2023-07-31T06:24:40;5.85;;;4.90;;
18748;SDS011;9503;53.560;10.246;2023-07-31T06:27:07;6.05;;;5.28;;
18748;SDS011;9503;53.560;10.246;2023-07-31T06:29:34;5.85;;;4.90;;
18748;SDS011;9503;53.560;10.246;2023-07-31T06:32:02;5.35;;;4.53;;
18748;SDS011;9503;53.560;10.246;2023-07-31T06:34:33;5.55;;;4.78;;
18748;SDS011;9503;53.560;10.246;2023-07-31T06:36:59;7.72;;;5.35;;
18748;SDS011;9503;53.560;10.246;2023-07-31T06:39:29;5.70;;;4.97;;
18748;SDS011;9503;53.560;10.246;2023-07-31T06:42:00;8.25;;;5.28;;
18748;SDS011;9503;53.560;10.246;2023-07-31T06:44:27;5.85;;;5.00;;
18748;SDS011;9503;53.560;10.246;2023-07-31T06:46:54;6.35;;;5.75;;
18748;SDS011;9503;53.560;10.246;2023-07-31T06:49:22;6.03;;;5.43;;
18748;SDS011;9503;53.560;10.246;2023-07-31T06:51:48;7.25;;;4.85;;
18748;SDS011;9503;53.560;10.246;2023-07-31T06:54:15;6.28;;;5.38;;
18748;SDS011;9503;53.560;10.246;2023-07-31T06:56:42;5.97;;;5.00;;
18748;SDS011;9503;53.560;10.246;2023-07-31T06:59:08;5.78;;;5.15;;
18748;SDS011;9503;53.560;10.246;2023-07-31T07:01:35;5.47;;;4.95;;
18748;SDS011;9503;53.560;10.246;2023-07-31T07:04:09;7.05;;;4.60;;
18748;SDS011;9503;53.560;10.246;2023-07-31T07:06:37;5.65;;;4.60;;
18748;SDS011;9503;53.560;10.246;2023-07-31T07:09:04;5.10;;;4.60;;
18748;SDS011;9503;53.560;10.246;2023-07-31T07:11:33;6.22;;;4.63;;
18748;SDS011;9503;53.560;10.246;2023-07-31T07:14:03;4.60;;;4.20;;
18748;SDS011;9503;53.560;10.246;2023-07-31T07:16:29;3.92;;;3.53;;
18748;SDS011;9503;53.560;10.246;2023-07-31T07:19:02;4.88;;;4.38;;
18748;SDS011;9503;53.560;10.246;2023-07-31T07:21:28;4.68;;;4.28;;
18748;SDS011;9503;53.560;10.246;2023-07-31T07:23:56;4.75;;;4.10;;
18748;SDS011;9503;53.560;10.246;2023-07-31T07:26:23;4.28;;;3.88;;
18748;SDS011;9503;53.560;10.246;2023-07-31T07:28:51;3.90;;;3.60;;
18748;SDS011;9503;53.560;10.246;2023-07-31T07:31:18;4.07;;;3.78;;
18748;SDS011;9503;53.560;10.246;2023-07-31T07:33:45;4.13;;;3.65;;
18748;SDS011;9503;53.560;10.246;2023-07-31T07:36:11;3.92;;;3.33;;
18748;SDS011;9503;53.560;10.246;2023-07-31T07:38:39;5.18;;;3.58;;
18748;SDS011;9503;53.560;10.246;2023-07-31T07:41:07;3.67;;;3.38;;
18748;SDS011;9503;53.560;10.246;2023-07-31T07:43:34;5.38;;;3.55;;
18748;SDS011;9503;53.560;10.246;2023-07-31T07:46:03;3.90;;;3.60;;
18748;SDS011;9503;53.560;10.246;2023-07-31T07:48:30;3.58;;;3.17;;
18748;SDS011;9503;53.560;10.246;2023-07-31T07:50:57;3.45;;;3.05;;
18748;SDS011;9503;53.560;10.246;2023-07-31T07:53:23;4.25;;;3.33;;
18748;SDS011;9503;53.560;10.246;2023-07-31T07:55:50;4.07;;;3.33;;
18748;SDS011;9503;53.560;10.246;2023-07-31T07:58:21;3.22;;;2.92;;
18748;SDS011;9503;53.560;10.246;2023-07-31T08:00:50;3.72;;;3.42;;
18748;SDS011;9503;53.560;10.246;2023-07-31T08:03:17;3.42;;;3.13;;
18748;SDS011;9503;53.560;10.246;2023-07-31T08:05:46;3.40;;;2.90;;
18748;SDS011;9503;53.560;10.246;2023-07-31T08:08:14;3.30;;;2.92;;
18748;SDS011;9503;53.560;10.246;2023-07-31T08:10:45;2.55;;;2.35;;
18748;SDS011;9503;53.560;10.246;2023-07-31T08:13:12;2.60;;;2.40;;
18748;SDS011;9503;53.560;10.246;2023-07-31T08:15:42;3.00;;;2.80;;
18748;SDS011;9503;53.560;10.246;2023-07-31T08:18:08;3.15;;;2.60;;
18748;SDS011;9503;53.560;10.246;2023-07-31T08:20:47;2.85;;;2.65;;
18748;SDS011;9503;53.560;10.246;2023-07-31T08:23:16;3.15;;;2.88;;
18748;SDS011;9503;53.560;10.246;2023-07-31T08:25:47;2.70;;;2.50;;
18748;SDS011;9503;53.560;10.246;2023-07-31T08:28:15;3.00;;;2.80;;
18748;SDS011;9503;53.560;10.246;2023-07-31T08:30:46;3.20;;;2.90;;
18748;SDS011;9503;53.560;10.246;2023-07-31T08:33:19;2.38;;;2.28;;
18748;SDS011;9503;53.560;10.246;2023-07-31T08:35:54;2.60;;;2.33;;
18748;SDS011;9503;53.560;10.246;2023-07-31T08:38:22;2.10;;;2.00;;
18748;SDS011;9503;53.560;10.246;2023-07-31T08:40:57;2.40;;;2.20;;
18748;SDS011;9503;53.560;10.246;2023-07-31T08:43:24;2.40;;;2.20;;
18748;SDS011;9503;53.560;10.246;2023-07-31T08:45:54;2.28;;;2.10;;
18748;SDS011;9503;53.560;10.246;2023-07-31T08:48:21;2.22;;;2.13;;
18748;SDS011;9503;53.560;10.246;2023-07-31T08:50:52;2.30;;;2.15;;
18748;SDS011;9503;53.560;10.246;2023-07-31T08:53:27;2.15;;;1.80;;
18748;SDS011;9503;53.560;10.246;2023-07-31T08:55:56;2.10;;;2.00;;
18748;SDS011;9503;53.560;10.246;2023-07-31T08:58:25;3.92;;;2.05;;
18748;SDS011;9503;53.560;10.246;2023-07-31T09:01:08;2.20;;;1.90;;
18748;SDS011;9503;53.560;10.246;2023-07-31T09:03:44;2.03;;;1.92;;
18748;SDS011;9503;53.560;10.246;2023-07-31T09:06:15;2.72;;;2.00;;
18748;SDS011;9503;53.560;10.246;2023-07-31T09:08:44;1.70;;;1.50;;
18748;SDS011;9503;53.560;10.246;2023-07-31T09:11:11;1.52;;;1.48;;
18748;SDS011;9503;53.560;10.246;2023-07-31T09:13:45;1.60;;;1.50;;
18748;SDS011;9503;53.560;10.246;2023-07-31T09:16:28;1.60;;;1.50;;
18748;SDS011;9503;53.560;10.246;2023-07-31T09:18:57;3.80;;;1.40;;
18748;SDS011;9503;53.560;10.246;2023-07-31T09:21:28;3.58;;;1.20;;
18748;SDS011;9503;53.560;10.246;2023-07-31T09:24:04;1.20;;;1.20;;
18748;SDS011;9503;53.560;10.246;2023-07-31T09:26:31;1.45;;;1.25;;
18748;SDS011;9503;53.560;10.246;2023-07-31T09:29:06;2.03;;;1.27;;
18748;SDS011;9503;53.560;10.246;2023-07-31T09:31:51;1.20;;;1.20;;
18748;SDS011;9503;53.560;10.246;2023-07-31T09:34:17;1.30;;;1.20;;
18748;SDS011;9503;53.560;10.246;2023-07-31T09:36:48;1.20;;;1.10;;
18748;SDS011;9503;53.560;10.246;2023-07-31T09:39:20;1.50;;;1.40;;
18748;SDS011;9503;53.560;10.246;2023-07-31T09:41:47;1.55;;;1.38;;
18748;SDS011;9503;53.560;10.246;2023-07-31T09:44:19;1.13;;;0.85;;
18748;SDS011;9503;53.560;10.246;2023-07-31T09:46:48;1.35;;;0.93;;
18748;SDS011;9503;53.560;10.246;2023-07-31T09:49:19;1.67;;;1.05;;
18748;SDS011;9503;53.560;10.246;2023-07-31T09:51:46;1.05;;;1.05;;
18748;SDS011;9503;53.560;10.246;2023-07-31T09:54:13;1.38;;;0.60;;
18748;SDS011;9503;53.560;10.246;2023-07-31T09:56:44;0.60;;;0.60;;
18748;SDS011;9503;53.560;10.246;2023-07-31T09:59:18;0.80;;;0.80;;
18748;SDS011;9503;53.560;10.246;2023-07-31T10:01:52;0.73;;;0.73;;
18748;SDS011;9503;53.560;10.246;2023-07-31T10:04:22;1.52;;;0.70;;
18748;SDS011;9503;53.560;10.246;2023-07-31T10:06:54;1.35;;;0.52;;
18748;SDS011;9503;53.560;10.246;2023-07-31T10:09:21;0.60;;;0.60;;
18748;SDS011;9503;53.560;10.246;2023-07-31T10:12:01;0.50;;;0.50;;
18748;SDS011;9503;53.560;10.246;2023-07-31T10:14:34;0.60;;;0.60;;
18748;SDS011;9503;53.560;10.246;2023-07-31T10:17:08;0.30;;;0.30;;
18748;SDS011;9503;53.560;10.246;2023-07-31T10:19:35;0.50;;;0.50;;
18748;SDS011;9503;53.560;10.246;2023-07-31T10:22:04;0.45;;;0.45;;
18748;SDS011;9503;53.560;10.246;2023-07-31T10:24:43;0.50;;;0.50;;
18748;SDS011;9503;53.560;10.246;2023-07-31T10:27:16;0.43;;;0.43;;
18748;SDS011;9503;53.560;10.246;2023-07-31T10:29:44;0.47;;;0.47;;
18748;SDS011;9503;53.560;10.246;2023-07-31T10:32:17;0.50;;;0.50;;
18748;SDS011;9503;53.560;10.246;2023-07-31T10:34:49;0.50;;;0.50;;
18748;SDS011;9503;53.560;10.246;2023-07-31T10:37:25;0.30;;;0.30;;
18748;SDS011;9503;53.560;10.246;2023-07-31T10:40:01;0.50;;;0.50;;
18748;SDS011;9503;53.560;10.246;2023-07-31T10:42:31;0.60;;;0.50;;
18748;SDS011;9503;53.560;10.246;2023-07-31T10:44:59;1.27;;;1.00;;
18748;SDS011;9503;53.560;10.246;2023-07-31T10:47:32;1.45;;;1.35;;
18748;SDS011;9503;53.560;10.246;2023-07-31T10:50:13;3.97;;;2.75;;
18748;SDS011;9503;53.560;10.246;2023-07-31T10:52:57;6.18;;;3.20;;
18748;SDS011;9503;53.560;10.246;2023-07-31T10:55:27;7.15;;;4.38;;
18748;SDS011;9503;53.560;10.246;2023-07-31T10:58:07;9.60;;;6.13;;
18748;SDS011;9503;53.560;10.246;2023-07-31T11:00:36;15.07;;;7.40;;
18748;SDS011;9503;53.560;10.246;2023-07-31T11:03:10;17.63;;;7.80;;
18748;SDS011;9503;53.560;10.246;2023-07-31T11:05:46;23.67;;;7.78;;
18748;SDS011;9503;53.560;10.246;2023-07-31T11:08:24;19.25;;;8.88;;
18748;SDS011;9503;53.560;10.246;2023-07-31T11:11:07;17.95;;;8.98;;
18748;SDS011;9503;53.560;10.246;2023-07-31T11:13:39;25.55;;;10.75;;
18748;SDS011;9503;53.560;10.246;2023-07-31T11:16:10;21.65;;;10.27;;
18748;SDS011;9503;53.560;10.246;2023-07-31T11:18:42;24.58;;;11.15;;
18748;SDS011;9503;53.560;10.246;2023-07-31T11:21:13;22.25;;;10.98;;
18748;SDS011;9503;53.560;10.246;2023-07-31T11:23:41;19.98;;;10.35;;
18748;SDS011;9503;53.560;10.246;2023-07-31T11:29:15;24.75;;;11.55;;
18748;SDS011;9503;53.560;10.246;2023-07-31T11:31:44;18.42;;;9.27;;
18748;SDS011;9503;53.560;10.246;2023-07-31T11:34:15;17.70;;;8.80;;
18748;SDS011;9503;53.560;10.246;2023-07-31T11:36:52;11.43;;;6.53;;
18748;SDS011;9503;53.560;10.246;2023-07-31T11:39:22;18.15;;;6.68;;
18748;SDS011;9503;53.560;10.246;2023-07-31T11:41:58;8.10;;;5.88;;
18748;SDS011;9503;53.560;10.246;2023-07-31T11:44:38;10.25;;;6.05;;
18748;SDS011;9503;53.560;10.246;2023-07-31T11:47:28;8.63;;;5.65;;
18748;SDS011;9503;53.560;10.246;2023-07-31T11:49:57;11.48;;;5.60;;
18748;SDS011;9503;53.560;10.246;2023-07-31T11:52:24;9.63;;;4.85;;
18748;SDS011;9503;53.560;10.246;2023-07-31T11:55:00;6.68;;;4.68;;
18748;SDS011;9503;53.560;10.246;2023-07-31T11:57:34;6.78;;;4.03;;
18748;SDS011;9503;53.560;10.246;2023-07-31T12:00:02;7.15;;;4.10;;
18748;SDS011;9503;53.560;10.246;2023-07-31T12:02:33;5.38;;;3.85;;
18748;SDS011;9503;53.560;10.246;2023-07-31T12:05:09;4.22;;;3.05;;
18748;SDS011;9503;53.560;10.246;2023-07-31T12:07:45;4.57;;;3.63;;
18748;SDS011;9503;53.560;10.246;2023-07-31T12:10:22;8.25;;;4.07;;
18748;SDS011;9503;53.560;10.246;2023-07-31T12:12:57;5.38;;;3.90;;
18748;SDS011;9503;53.560;10.246;2023-07-31T12:15:40;6.15;;;4.13;;
18748;SDS011;9503;53.560;10.246;2023-07-31T12:18:19;6.95;;;3.55;;
18748;SDS011;9503;53.560;10.246;2023-07-31T12:20:48;3.63;;;3.03;;
18748;SDS011;9503;53.560;10.246;2023-07-31T12:23:20;3.47;;;2.60;;
18748;SDS011;9503;53.560;10.246;2023-07-31T12:26:07;4.40;;;3.13;;
18748;SDS011;9503;53.560;10.246;2023-07-31T12:28:54;3.30;;;2.83;;
18748;SDS011;9503;53.560;10.246;2023-07-31T12:31:21;4.25;;;2.92;;
18748;SDS011;9503;53.560;10.246;2023-07-31T12:33:53;3.88;;;2.97;;
18748;SDS011;9503;53.560;10.246;2023-07-31T12:36:26;2.70;;;2.50;;
18748;SDS011;9503;53.560;10.246;2023-07-31T12:39:05;2.45;;;2.20;;
18748;SDS011;9503;53.560;10.246;2023-07-31T12:41:41;2.85;;;2.58;;
18748;SDS011;9503;53.560;10.246;2023-07-31T12:44:10;2.30;;;2.10;;
18748;SDS011;9503;53.560;10.246;2023-07-31T12:46:37;2.30;;;2.00;;
18748;SDS011;9503;53.560;10.246;2023-07-31T12:49:16;2.30;;;2.10;;
18748;SDS011;9503;53.560;10.246;2023-07-31T12:51:49;3.30;;;2.10;;
18748;SDS011;9503;53.560;10.246;2023-07-31T12:54:19;2.33;;;2.13;;
18748;SDS011;9503;53.560;10.246;2023-07-31T12:56:52;3.95;;;2.33;;
18748;SDS011;9503;53.560;10.246;2023-07-31T12:59:37;2.15;;;1.90;;
18748;SDS011;9503;53.560;10.246;2023-07-31T13:02:07;2.10;;;1.90;;
18748;SDS011;9503;53.560;10.246;2023-07-31T13:04:45;2.22;;;2.03;;
18748;SDS011;9503;53.560;10.246;2023-07-31T13:07:20;3.22;;;2.00;;
18748;SDS011;9503;53.560;10.246;2023-07-31T13:09:48;2.00;;;1.80;;
18748;SDS011;9503;53.560;10.246;2023-07-31T13:12:14;2.42;;;2.15;;
18748;SDS011;9503;53.560;10.246;2023-07-31T13:14:41;2.55;;;1.92;;
18748;SDS011;9503;53.560;10.246;2023-07-31T13:17:07;2.63;;;1.73;;
18748;SDS011;9503;53.560;10.246;2023-07-31T13:19:35;1.75;;;1.65;;
18748;SDS011;9503;53.560;10.246;2023-07-31T13:22:02;2.85;;;1.95;;
18748;SDS011;9503;53.560;10.246;2023-07-31T13:24:30;1.70;;;1.60;;
18748;SDS011;9503;53.560;10.246;2023-07-31T13:26:57;1.50;;;1.40;;
18748;SDS011;9503;53.560;10.246;2023-07-31T13:29:23;1.85;;;1.10;;
18748;SDS011;9503;53.560;10.246;2023-07-31T13:31:50;0.90;;;0.90;;
18748;SDS011;9503;53.560;10.246;2023-07-31T13:34:18;1.05;;;0.90;;
18748;SDS011;9503;53.560;10.246;2023-07-31T13:36:44;0.93;;;0.90;;
18748;SDS011;9503;53.560;10.246;2023-07-31T13:39:11;1.30;;;1.00;;
18748;SDS011;9503;53.560;10.246;2023-07-31T13:41:39;1.40;;;1.30;;
18748;SDS011;9503;53.560;10.246;2023-07-31T13:44:06;2.67;;;1.70;;
18748;SDS011;9503;53.560;10.246;2023-07-31T13:46:33;1.50;;;1.45;;
18748;SDS011;9503;53.560;10.246;2023-07-31T13:48:59;1.55;;;1.45;;
18748;SDS011;9503;53.560;10.246;2023-07-31T13:51:26;2.42;;;1.85;;
18748;SDS011;9503;53.560;10.246;2023-07-31T13:53:53;1.95;;;1.48;;
18748;SDS011;9503;53.560;10.246;2023-07-31T13:56:20;1.33;;;1.15;;
18748;SDS011;9503;53.560;10.246;2023-07-31T13:58:48;1.63;;;1.45;;
18748;SDS011;9503;53.560;10.246;2023-07-31T14:01:14;1.67;;;1.23;;
18748;SDS011;9503;53.560;10.246;2023-07-31T14:03:41;1.10;;;1.10;;
18748;SDS011;9503;53.560;10.246;2023-07-31T14:06:07;1.63;;;1.52;;
18748;SDS011;9503;53.560;10.246;2023-07-31T14:08:34;2.90;;;1.80;;
18748;SDS011;9503;53.560;10.246;2023-07-31T14:11:01;1.40;;;1.30;;
18748;SDS011;9503;53.560;10.246;2023-07-31T14:13:27;1.55;;;1.45;;
18748;SDS011;9503;53.560;10.246;2023-07-31T14:15:55;2.00;;;1.40;;
18748;SDS011;9503;53.560;10.246;2023-07-31T14:18:22;2.05;;;1.40;;
18748;SDS011;9503;53.560;10.246;2023-07-31T14:20:48;1.50;;;1.40;;
18748;SDS011;9503;53.560;10.246;2023-07-31T14:23:15;1.83;;;1.50;;
18748;SDS011;9503;53.560;10.246;2023-07-31T14:25:41;1.65;;;1.55;;
18748;SDS011;9503;53.560;10.246;2023-07-31T14:28:08;1.75;;;1.65;;
18748;SDS011;9503;53.560;10.246;2023-07-31T14:30:35;1.30;;;1.30;;
18748;SDS011;9503;53.560;10.246;2023-07-31T14:33:03;1.60;;;1.50;;
18748;SDS011;9503;53.560;10.246;2023-07-31T14:35:29;2.78;;;1.40;;
18748;SDS011;9503;53.560;10.246;2023-07-31T14:37:56;1.88;;;1.55;;
18748;SDS011;9503;53.560;10.246;2023-07-31T14:40:22;1.33;;;1.20;;
18748;SDS011;9503;53.560;10.246;2023-07-31T14:42:49;1.58;;;1.48;;
18748;SDS011;9503;53.560;10.246;2023-07-31T14:45:15;2.38;;;1.75;;
18748;SDS011;9503;53.560;10.246;2023-07-31T14:47:42;1.02;;;1.02;;
18748;SDS011;9503;53.560;10.246;2023-07-31T14:50:10;0.80;;;0.80;;
18748;SDS011;9503;53.560;10.246;2023-07-31T14:52:37;1.25;;;1.15;;
18748;SDS011;9503;53.560;10.246;2023-07-31T14:55:04;1.38;;;1.10;;
18748;SDS011;9503;53.560;10.246;2023-07-31T14:57:31;1.52;;;1.30;;
18748;SDS011;9503;53.560;10.246;2023-07-31T14:59:58;4.00;;;1.42;;
18748;SDS011;9503;53.560;10.246;2023-07-31T15:02:25;2.15;;;1.20;;